createdAt,value
2018-08-09T00:01:57.999Z,101248.95
2018-08-09T00:04:31.169Z,101209.31
2018-08-09T00:07:03.017Z,101240.80
2018-08-09T00:09:38.014Z,101242.71
2018-08-09T00:12:11.194Z,101240.07
2018-08-09T00:14:42.466Z,101234.89
2018-08-09T00:17:13.873Z,101243.45
2018-08-09T00:19:49.427Z,101243.37
2018-08-09T00:22:23.300Z,101240.91
2018-08-09T00:24:58.772Z,101241.43
2018-08-09T00:27:29.826Z,101244.44
2018-08-09T00:30:03.640Z,101245.30
2018-08-09T00:32:37.841Z,101246.22
2018-08-09T00:35:13.238Z,101244.80
2018-08-09T00:37:44.973Z,101239.27
2018-08-09T00:40:17.753Z,101242.03
2018-08-09T00:42:54.166Z,101242.28
2018-08-09T00:45:31.546Z,101242.55
2018-08-09T00:48:04.935Z,101244.28
2018-08-09T00:53:18.472Z,101240.27
2018-08-09T00:55:48.829Z,101241.15
2018-08-09T00:58:21.085Z,101236.41
2018-08-09T01:00:52.973Z,101239.83
2018-08-09T01:03:28.654Z,101244.39
2018-08-09T01:06:01.430Z,101244.63
2018-08-09T01:08:38.365Z,101243.67
2018-08-09T01:11:12.431Z,101248.71
2018-08-09T01:13:44.422Z,101248.73
2018-08-09T01:16:16.061Z,101247.41
2018-08-09T01:18:48.738Z,101253.80
2018-08-09T01:21:25.424Z,101254.06
2018-08-09T01:23:59.652Z,101257.42
2018-08-09T01:26:31.834Z,101260.96
2018-08-09T01:29:12.254Z,101261.66
2018-08-09T01:31:44.271Z,101256.45
2018-08-09T01:34:22.007Z,101259.02
2018-08-09T01:36:54.586Z,101250.53
2018-08-09T01:39:25.030Z,101258.19
2018-08-09T01:42:24.940Z,101251.06
2018-08-09T01:44:58.407Z,101249.02
2018-08-09T01:47:38.314Z,101245.66
2018-08-09T01:50:13.145Z,101247.69
2018-08-09T01:52:44.275Z,101246.48
2018-08-09T01:55:19.742Z,101241.17
2018-08-09T01:57:50.181Z,101243.37
2018-08-09T02:00:25.388Z,101238.46
2018-08-09T02:03:15.170Z,101232.00
2018-08-09T02:05:49.385Z,101239.48
2018-08-09T02:08:22.773Z,101239.00
2018-08-09T02:10:58.728Z,101246.44
2018-08-09T02:13:32.640Z,101246.26
2018-08-09T02:16:06.816Z,101231.97
2018-08-09T02:18:41.866Z,101259.10
2018-08-09T02:21:17.248Z,101253.23
2018-08-09T02:23:48.620Z,101261.39
2018-08-09T02:26:20.138Z,101213.58
2018-08-09T02:28:58.699Z,101261.36
2018-08-09T02:34:09.859Z,101257.72
2018-08-09T02:36:53.006Z,101264.47
2018-08-09T02:39:27.466Z,101262.49
2018-08-09T02:41:58.017Z,101265.42
2018-08-09T02:44:30.457Z,101261.53
2018-08-09T02:47:03.687Z,101260.17
2018-08-09T02:49:46.149Z,101264.80
2018-08-09T02:52:18.289Z,101266.40
2018-08-09T02:54:50.563Z,101267.65
2018-08-09T02:57:36.551Z,101273.23
2018-08-09T03:00:10.808Z,101283.67
2018-08-09T03:02:43.440Z,101284.42
2018-08-09T03:05:16.804Z,101290.31
2018-08-09T03:07:52.864Z,101296.26
2018-08-09T03:10:25.067Z,101290.75
2018-08-09T03:13:00.908Z,101295.55
2018-08-09T03:15:32.907Z,101293.55
2018-08-09T03:18:07.273Z,101296.91
2018-08-09T03:20:37.468Z,101299.72
2018-08-09T03:23:08.028Z,101306.02
2018-08-09T03:25:42.985Z,101307.77
2018-08-09T03:28:16.195Z,101307.73
2018-08-09T03:30:48.015Z,101314.03
2018-08-09T03:33:20.071Z,101309.09
2018-08-09T03:35:58.462Z,101304.92
2018-08-09T03:38:29.765Z,101311.64
2018-08-09T03:41:09.977Z,101304.53
2018-08-09T03:43:42.471Z,101311.27
2018-08-09T03:46:17.209Z,101318.48
2018-08-09T03:48:52.645Z,101327.65
2018-08-09T03:51:34.523Z,101325.66
2018-08-09T03:54:06.988Z,101326.86
2018-08-09T03:56:39.171Z,101323.64
2018-08-09T03:59:12.322Z,101335.96
2018-08-09T04:01:52.712Z,101333.09
2018-08-09T04:04:29.696Z,101337.80
2018-08-09T04:07:00.127Z,101331.47
2018-08-09T04:09:33.581Z,101340.48
2018-08-09T04:12:11.525Z,101239.94
2018-08-09T04:14:47.003Z,101336.72
2018-08-09T04:17:23.514Z,101344.89
2018-08-09T04:19:55.669Z,101345.28
2018-08-09T04:22:28.907Z,101343.19
2018-08-09T04:25:02.691Z,101348.38
2018-08-09T04:27:38.460Z,101347.79
2018-08-09T04:30:22.886Z,101348.53
2018-08-09T04:32:55.537Z,101356.42
2018-08-09T04:35:28.916Z,101362.37
2018-08-09T04:38:01.733Z,101366.61
2018-08-09T04:40:34.134Z,101373.25
2018-08-09T04:43:10.419Z,101372.29
2018-08-09T04:45:41.208Z,101361.91
2018-08-09T04:48:12.020Z,101365.58
2018-08-09T04:50:43.643Z,101361.92
2018-08-09T04:53:16.447Z,101366.30
2018-08-09T04:55:47.983Z,101367.98
2018-08-09T04:58:18.192Z,101380.62
2018-08-09T05:00:48.572Z,101377.65
2018-08-09T05:03:19.209Z,101378.52
2018-08-09T05:05:51.065Z,101384.99
2018-08-09T05:08:22.266Z,101381.73
2018-08-09T05:10:52.612Z,101393.53
2018-08-09T05:13:23.278Z,101374.83
2018-08-09T05:15:57.619Z,101384.61
2018-08-09T05:18:26.962Z,101380.80
2018-08-09T05:21:01.290Z,101388.41
2018-08-09T05:23:36.555Z,101387.92
2018-08-09T05:26:09.858Z,101384.95
2018-08-09T05:28:43.614Z,101392.23
2018-08-09T05:31:21.349Z,101401.05
2018-08-09T05:33:55.127Z,101405.16
2018-08-09T05:36:27.087Z,101392.56
2018-08-09T05:39:06.903Z,101403.16
2018-08-09T05:41:37.934Z,101400.48
2018-08-09T05:44:11.443Z,101413.23
2018-08-09T05:46:46.943Z,101410.53
2018-08-09T05:49:27.820Z,101411.66
2018-08-09T05:51:59.750Z,101409.17
2018-08-09T05:54:33.514Z,101404.95
2018-08-09T05:57:07.617Z,101415.05
2018-08-09T05:59:45.221Z,101418.41
2018-08-09T06:02:16.991Z,101422.17
2018-08-09T06:04:49.160Z,101415.45
2018-08-09T06:07:23.765Z,101422.60
2018-08-09T06:09:59.841Z,101420.66
2018-08-09T06:12:31.117Z,101415.16
2018-08-09T06:15:08.983Z,101413.72
2018-08-09T06:17:39.709Z,101312.03
2018-08-09T06:20:12.160Z,101406.91
2018-08-09T06:22:43.364Z,101414.11
2018-08-09T06:25:15.297Z,101408.66
2018-08-09T06:27:46.731Z,101409.36
2018-08-09T06:30:17.390Z,101411.31
2018-08-09T06:32:50.978Z,101293.33
2018-08-09T06:35:21.445Z,101400.75
2018-08-09T06:37:52.808Z,101408.78
2018-08-09T06:40:27.893Z,101413.56
2018-08-09T06:43:02.239Z,101421.44
2018-08-09T06:45:35.915Z,101404.86
2018-08-09T06:48:07.876Z,101416.27
2018-08-09T06:50:38.920Z,101426.59
2018-08-09T06:53:14.013Z,101429.78
2018-08-09T06:55:49.016Z,101430.50
2018-08-09T06:58:20.325Z,101429.87
2018-08-09T07:00:51.244Z,101437.39
2018-08-09T07:03:28.308Z,101438.85
2018-08-09T07:05:59.234Z,101429.91
2018-08-09T07:08:32.439Z,101432.62
2018-08-09T07:11:12.397Z,101438.62
2018-08-09T07:13:52.696Z,101433.27
2018-08-09T07:16:25.661Z,101435.73
2018-08-09T07:18:58.280Z,101437.77
2018-08-09T07:21:31.572Z,101440.44
2018-08-09T07:24:06.639Z,101438.28
2018-08-09T07:26:42.837Z,101426.53
2018-08-09T07:29:21.113Z,101436.61
2018-08-09T07:31:53.913Z,101439.88
2018-08-09T07:34:26.141Z,101443.67
2018-08-09T07:36:58.462Z,101443.00
2018-08-09T07:39:30.956Z,101429.13
2018-08-09T07:42:03.015Z,101440.02
2018-08-09T07:44:35.756Z,101435.36
2018-08-09T07:47:18.129Z,101439.86
2018-08-09T07:49:54.058Z,101446.36
2018-08-09T07:52:25.872Z,101443.25
2018-08-09T07:54:56.734Z,101437.35
2018-08-09T07:57:33.699Z,101432.63
2018-08-09T08:00:04.315Z,101439.23
2018-08-09T08:02:38.283Z,101441.22
2018-08-09T08:05:09.365Z,101433.22
2018-08-09T08:07:46.313Z,101425.47
2018-08-09T08:10:16.625Z,101437.97
2018-08-09T08:12:48.709Z,101425.47
2018-08-09T08:15:26.814Z,101420.37
2018-08-09T08:17:57.363Z,101427.81
2018-08-09T08:20:29.183Z,101429.23
2018-08-09T08:23:02.784Z,101419.42
2018-08-09T08:25:37.556Z,101433.55
2018-08-09T08:28:12.318Z,101428.22
2018-08-09T08:30:44.328Z,101428.34
2018-08-09T08:33:18.941Z,101440.05
2018-08-09T08:35:51.065Z,101437.53
2018-08-09T08:38:24.435Z,101439.80
2018-08-09T08:41:02.890Z,101441.38
2018-08-09T08:43:33.159Z,101445.91
2018-08-09T08:46:04.159Z,101441.22
2018-08-09T08:48:35.025Z,101434.35
2018-08-09T08:51:10.352Z,101441.05
2018-08-09T08:53:42.117Z,101439.55
2018-08-09T08:56:15.906Z,101439.66
2018-08-09T08:58:51.529Z,101439.01
2018-08-09T09:01:25.042Z,101447.64
2018-08-09T09:03:57.702Z,101446.84
2018-08-09T09:06:28.720Z,101441.54
2018-08-09T09:09:02.880Z,101439.12
2018-08-09T09:14:52.826Z,101433.94
2018-08-09T09:17:25.081Z,101435.41
2018-08-09T09:19:55.206Z,101439.17
2018-08-09T09:22:29.739Z,101443.06
2018-08-09T09:25:01.807Z,101439.44
2018-08-09T09:27:38.740Z,101441.03
2018-08-09T09:30:17.386Z,101436.02
2018-08-09T09:32:47.261Z,101439.67
2018-08-09T09:35:20.829Z,101444.13
2018-08-09T09:37:52.063Z,101440.09
2018-08-09T09:40:26.013Z,101441.96
2018-08-09T09:43:00.630Z,101445.25
2018-08-09T09:45:31.881Z,101440.13
2018-08-09T09:48:03.910Z,101450.17
2018-08-09T09:50:33.592Z,101448.61
2018-08-09T09:53:11.681Z,101442.42
2018-08-09T09:55:43.354Z,101444.31
2018-08-09T09:58:15.765Z,101433.52
2018-08-09T10:00:50.849Z,101438.73
2018-08-09T10:03:23.036Z,101438.89
2018-08-09T10:05:56.109Z,101433.55
2018-08-09T10:08:26.492Z,101441.78
2018-08-09T10:10:59.381Z,101439.93
2018-08-09T10:13:32.845Z,101433.59
2018-08-09T10:16:04.555Z,101428.39
2018-08-09T10:18:35.249Z,101440.54
2018-08-09T10:21:06.726Z,101427.83
2018-08-09T10:23:38.356Z,101423.08
2018-08-09T10:26:12.229Z,101425.56
2018-08-09T10:28:45.250Z,101421.01
2018-08-09T10:31:18.483Z,101430.11
2018-08-09T10:33:55.332Z,101419.02
2018-08-09T10:36:36.339Z,101423.30
2018-08-09T10:39:12.905Z,101424.51
2018-08-09T10:41:44.211Z,101424.32
2018-08-09T10:44:22.191Z,101422.98
2018-08-09T10:46:53.288Z,101413.09
2018-08-09T10:49:26.866Z,101412.06
2018-08-09T10:51:59.432Z,101420.55
2018-08-09T10:54:34.992Z,101409.11
2018-08-09T10:57:10.781Z,101407.57
2018-08-09T10:59:44.517Z,101413.92
2018-08-09T11:02:17.542Z,101404.45
2018-08-09T11:04:49.179Z,101412.36
2018-08-09T11:07:25.064Z,101409.32
2018-08-09T11:10:06.234Z,101398.42
2018-08-09T11:12:41.879Z,101403.34
2018-08-09T11:15:17.623Z,101407.29
2018-08-09T11:17:53.584Z,101408.81
2018-08-09T11:20:23.089Z,101399.02
2018-08-09T11:22:56.299Z,101410.87
2018-08-09T11:25:29.851Z,101401.40
2018-08-09T11:28:01.863Z,101404.23
2018-08-09T11:30:40.192Z,101397.53
2018-08-09T11:33:16.005Z,101398.98
2018-08-09T11:35:46.487Z,101393.78
2018-08-09T11:38:17.299Z,101409.14
2018-08-09T11:40:51.107Z,101413.00
2018-08-09T11:43:22.220Z,101406.63
2018-08-09T11:45:52.474Z,101412.01
2018-08-09T11:48:24.353Z,101408.25
2018-08-09T11:50:54.564Z,101406.81
2018-08-09T11:53:27.097Z,101410.71
2018-08-09T11:55:57.958Z,101403.41
2018-08-09T11:58:32.195Z,101397.32
2018-08-09T12:01:03.826Z,101291.73
2018-08-09T12:03:34.962Z,101283.95
2018-08-09T12:06:06.120Z,101396.88
2018-08-09T12:08:36.725Z,101397.19
2018-08-09T12:11:12.116Z,101389.35
2018-08-09T12:13:44.153Z,101394.20
2018-08-09T12:16:16.755Z,101379.84
2018-08-09T12:18:47.629Z,101393.08
2018-08-09T12:21:19.097Z,101394.30
2018-08-09T12:23:56.541Z,101391.70
2018-08-09T12:26:35.075Z,101392.28
2018-08-09T12:29:16.725Z,101377.90
2018-08-09T12:31:49.361Z,101384.91
2018-08-09T12:34:21.015Z,101385.15
2018-08-09T12:36:50.586Z,101378.83
2018-08-09T12:39:23.092Z,101387.30
2018-08-09T12:41:57.751Z,101385.71
2018-08-09T12:44:30.187Z,101390.17
2018-08-09T12:47:06.907Z,101389.81
2018-08-09T12:49:42.494Z,101385.92
2018-08-09T12:52:18.012Z,101390.47
2018-08-09T12:54:56.438Z,101399.11
2018-08-09T12:57:27.091Z,101388.03
2018-08-09T13:00:04.092Z,101390.59
2018-08-09T13:02:37.130Z,101384.20
2018-08-09T13:05:11.715Z,101385.57
2018-08-09T13:07:44.150Z,101395.63
2018-08-09T13:10:17.853Z,101390.80
2018-08-09T13:12:51.081Z,101388.37
2018-08-09T13:15:28.152Z,101392.64
2018-08-09T13:17:59.760Z,101385.14
2018-08-09T13:20:30.433Z,101402.14
2018-08-09T13:23:00.068Z,101389.13
2018-08-09T13:25:32.010Z,101391.42
2018-08-09T13:28:04.568Z,101384.54
2018-08-09T13:30:37.753Z,101388.11
2018-08-09T13:33:09.600Z,101383.34
2018-08-09T13:35:43.450Z,101385.87
2018-08-09T13:38:15.114Z,101392.59
2018-08-09T13:40:46.521Z,101382.58
2018-08-09T13:43:18.569Z,101392.67
2018-08-09T13:45:49.870Z,101388.37
2018-08-09T13:48:22.681Z,101383.86
2018-08-09T13:50:54.067Z,101384.97
2018-08-09T13:53:28.054Z,101389.13
2018-08-09T13:56:02.963Z,101392.41
2018-08-09T13:58:37.208Z,101396.40
2018-08-09T14:01:14.735Z,101388.58
2018-08-09T14:03:45.854Z,101388.25
2018-08-09T14:06:18.426Z,101389.98
2018-08-09T14:08:49.716Z,101385.87
2018-08-09T14:11:22.653Z,101384.69
2018-08-09T14:13:58.126Z,101384.94
2018-08-09T14:16:31.974Z,101395.27
2018-08-09T14:19:05.024Z,101393.10
2018-08-09T14:21:35.028Z,101390.47
2018-08-09T14:24:07.959Z,101378.70
2018-08-09T14:26:41.102Z,101390.17
2018-08-09T14:29:13.239Z,101393.59
2018-08-09T14:31:50.617Z,101403.92
2018-08-09T14:34:23.351Z,101392.45
2018-08-09T14:36:53.878Z,101397.09
2018-08-09T14:39:23.463Z,101401.64
2018-08-09T14:41:56.492Z,101393.78
2018-08-09T14:44:27.182Z,101402.60
2018-08-09T14:46:58.603Z,101399.45
2018-08-09T14:49:28.891Z,101390.13
2018-08-09T14:52:01.878Z,101400.07
2018-08-09T14:54:34.530Z,101389.56
2018-08-09T14:57:04.053Z,101395.79
2018-08-09T14:59:35.509Z,101386.37
2018-08-09T15:02:08.535Z,101398.29
2018-08-09T15:04:39.866Z,101390.13
2018-08-09T15:07:10.142Z,101353.70
2018-08-09T15:09:41.617Z,101396.41
2018-08-09T15:12:11.546Z,101381.76
2018-08-09T15:14:46.552Z,101378.50
2018-08-09T15:17:17.861Z,101384.69
2018-08-09T15:19:49.933Z,101386.80
2018-08-09T15:22:27.878Z,101385.30
2018-08-09T15:25:01.246Z,101384.51
2018-08-09T15:27:32.469Z,101376.33
2018-08-09T15:30:04.047Z,101374.55
2018-08-09T15:32:36.709Z,101381.81
2018-08-09T15:35:11.227Z,101378.30
2018-08-09T15:37:43.430Z,101371.03
2018-08-09T15:40:16.497Z,101377.16
2018-08-09T15:42:48.972Z,101381.78
2018-08-09T15:45:22.069Z,101387.16
2018-08-09T15:47:58.245Z,101387.30
2018-08-09T15:50:31.304Z,101389.26
2018-08-09T15:53:02.687Z,101395.98
2018-08-09T15:55:34.922Z,101398.49
2018-08-09T15:58:11.243Z,101399.45
2018-08-09T16:00:45.081Z,101404.14
2018-08-09T16:03:17.110Z,101410.11
2018-08-09T16:05:47.596Z,101403.45
2018-08-09T16:08:22.307Z,101408.38
2018-08-09T16:10:51.803Z,101356.50
2018-08-09T16:13:26.733Z,101405.20
2018-08-09T16:16:04.465Z,101414.38
2018-08-09T16:18:44.532Z,101418.80
2018-08-09T16:21:20.341Z,101419.19
2018-08-09T16:23:52.397Z,101429.99
2018-08-09T16:26:24.415Z,101425.91
2018-08-09T16:28:58.854Z,101433.34
2018-08-09T16:31:34.184Z,101427.98
2018-08-09T16:34:07.630Z,101431.28
2018-08-09T16:36:41.944Z,101438.69
2018-08-09T16:39:15.420Z,101439.11
2018-08-09T16:41:46.874Z,101437.17
2018-08-09T16:44:20.341Z,101438.73
2018-08-09T16:46:51.022Z,101440.55
2018-08-09T16:49:27.891Z,101435.19
2018-08-09T16:51:57.762Z,101432.67
2018-08-09T16:54:32.054Z,101437.18
2018-08-09T16:57:07.121Z,101435.14
2018-08-09T16:59:40.402Z,101450.82
2018-08-09T17:02:10.715Z,101366.59
2018-08-09T17:04:42.553Z,101446.80
2018-08-09T17:07:19.719Z,101447.56
2018-08-09T17:09:52.058Z,101451.45
2018-08-09T17:12:23.064Z,101442.15
2018-08-09T17:14:53.970Z,101446.27
2018-08-09T17:17:27.408Z,101442.74
2018-08-09T17:20:01.791Z,101437.20
2018-08-09T17:22:35.409Z,101444.00
2018-08-09T17:25:12.781Z,101442.69
2018-08-09T17:27:48.076Z,101453.34
2018-08-09T17:30:22.987Z,101448.34
2018-08-09T17:32:55.526Z,101451.58
2018-08-09T17:35:30.686Z,101456.33
2018-08-09T17:38:03.239Z,101456.83
2018-08-09T17:40:35.246Z,101465.16
2018-08-09T17:43:06.156Z,101472.67
2018-08-09T17:45:40.561Z,101480.22
2018-08-09T17:48:13.536Z,101482.08
2018-08-09T17:50:46.889Z,101471.13
2018-08-09T17:53:20.155Z,101474.12
2018-08-09T17:55:55.183Z,101478.11
2018-08-09T17:58:27.156Z,101474.50
2018-08-09T18:00:58.609Z,101413.16
2018-08-09T18:03:32.252Z,101476.99
2018-08-09T18:06:05.453Z,101485.02
2018-08-09T18:08:38.763Z,101483.33
2018-08-09T18:11:12.349Z,101483.67
2018-08-09T18:13:43.669Z,101482.22
2018-08-09T18:16:19.994Z,101484.21
2018-08-09T18:18:53.721Z,101472.56
2018-08-09T18:21:24.732Z,101480.95
2018-08-09T18:23:56.564Z,101481.64
2018-08-09T18:26:28.137Z,101463.59
2018-08-09T18:28:58.429Z,101485.52
2018-08-09T18:31:31.344Z,101489.48
2018-08-09T18:34:02.795Z,101492.33
2018-08-09T18:36:33.103Z,101495.35
2018-08-09T18:41:43.442Z,101496.38
2018-08-09T18:44:15.868Z,101484.78
2018-08-09T18:46:46.851Z,101495.27
2018-08-09T18:49:19.829Z,101481.87
2018-08-09T18:51:56.824Z,101488.67
2018-08-09T18:54:29.983Z,101366.42
2018-08-09T18:57:02.518Z,101432.83
2018-08-09T18:59:38.801Z,101498.89
2018-08-09T19:02:08.938Z,101498.03
2018-08-09T19:04:41.654Z,101499.35
2018-08-09T19:07:14.604Z,101497.70
2018-08-09T19:09:46.669Z,101498.67
2018-08-09T19:12:23.065Z,101491.36
2018-08-09T19:14:55.914Z,101496.85
2018-08-09T19:17:26.370Z,101505.05
2018-08-09T19:19:59.657Z,101503.73
2018-08-09T19:22:29.939Z,101505.70
2018-08-09T19:25:05.623Z,101520.00
2018-08-09T19:27:39.441Z,101517.39
2018-08-09T19:30:11.678Z,101515.76
2018-08-09T19:32:44.296Z,101521.38
2018-08-09T19:35:21.129Z,101520.57
2018-08-09T19:37:52.291Z,101521.89
2018-08-09T19:40:33.081Z,101523.02
2018-08-09T19:43:03.135Z,101523.05
2018-08-09T19:45:37.411Z,101518.37
2018-08-09T19:48:06.968Z,101516.05
2018-08-09T19:50:43.776Z,101516.52
2018-08-09T19:53:15.285Z,101520.36
2018-08-09T19:55:46.549Z,101521.14
2018-08-09T19:58:16.982Z,101520.84
2018-08-09T20:00:56.517Z,101518.59
2018-08-09T20:03:26.222Z,101514.29
2018-08-09T20:06:02.196Z,101520.23
2018-08-09T20:08:31.629Z,101487.08
2018-08-09T20:11:04.049Z,101525.43
2018-08-09T20:13:40.120Z,101528.65
2018-08-09T20:16:14.951Z,101523.81
2018-08-09T20:18:49.626Z,101518.31
2018-08-09T20:21:22.163Z,101516.53
2018-08-09T20:23:55.934Z,101515.47
2018-08-09T20:26:29.419Z,101521.67
2018-08-09T20:29:04.495Z,101520.03
2018-08-09T20:31:35.279Z,101433.02
2018-08-09T20:34:07.879Z,101520.28
2018-08-09T20:36:43.213Z,101512.17
2018-08-09T20:39:18.568Z,101413.86
2018-08-09T20:41:57.054Z,101513.49
2018-08-09T20:44:26.638Z,101515.27
2018-08-09T20:47:04.351Z,101511.39
2018-08-09T20:49:35.775Z,101516.82
2018-08-09T20:52:07.710Z,101522.64
2018-08-09T20:54:40.214Z,101526.80
2018-08-09T20:57:13.613Z,101515.74
2018-08-09T20:59:48.207Z,101523.32
2018-08-09T21:02:20.876Z,101518.13
2018-08-09T21:04:55.097Z,101415.19
2018-08-09T21:07:26.422Z,101493.22
2018-08-09T21:09:59.166Z,101513.81
2018-08-09T21:12:29.914Z,101518.52
2018-08-09T21:15:02.544Z,101518.03
2018-08-09T21:17:39.418Z,101516.49
2018-08-09T21:20:14.966Z,101517.73
2018-08-09T21:22:49.215Z,101517.81
2018-08-09T21:25:20.808Z,101518.25
2018-08-09T21:27:53.227Z,101512.48
2018-08-09T21:30:34.093Z,101510.86
2018-08-09T21:33:10.395Z,101516.45
2018-08-09T21:35:40.993Z,101518.39
2018-08-09T21:38:16.529Z,101512.08
2018-08-09T21:40:51.137Z,101516.01
2018-08-09T21:43:24.197Z,101513.98
2018-08-09T21:45:56.613Z,101510.67
2018-08-09T21:48:29.336Z,101513.84
2018-08-09T21:51:01.603Z,101509.84
2018-08-09T21:53:37.457Z,101499.61
2018-08-09T21:56:10.436Z,101496.53
2018-08-09T21:58:46.147Z,101496.12
2018-08-09T22:01:17.750Z,101504.89
2018-08-09T22:03:50.316Z,101492.16
2018-08-09T22:06:25.972Z,101493.27
2018-08-09T22:09:01.929Z,101484.32
2018-08-09T22:11:38.473Z,101454.27
2018-08-09T22:14:22.441Z,101496.12
2018-08-09T22:17:02.050Z,101497.09
2018-08-09T22:19:36.433Z,101500.00
2018-08-09T22:22:15.218Z,101498.47
2018-08-09T22:24:48.023Z,101500.63
2018-08-09T22:27:22.623Z,101498.23
2018-08-09T22:29:57.657Z,101499.56
2018-08-09T22:32:29.196Z,101504.75
2018-08-09T22:35:03.208Z,101506.52
2018-08-09T22:37:34.568Z,101510.91
2018-08-09T22:40:09.134Z,101501.56
2018-08-09T22:42:41.724Z,101436.87
2018-08-09T22:45:13.127Z,101498.86
2018-08-09T22:47:44.860Z,101500.45
2018-08-09T22:50:18.293Z,101498.59
2018-08-09T22:52:54.043Z,101503.80
2018-08-09T22:55:28.874Z,101507.71
2018-08-09T22:58:02.547Z,101504.02
2018-08-09T23:00:41.211Z,101495.25
2018-08-09T23:03:16.203Z,101496.73
2018-08-09T23:05:51.450Z,101495.77
2018-08-09T23:08:23.390Z,101498.97
2018-08-09T23:10:56.229Z,101488.76
2018-08-09T23:13:31.308Z,101489.38
2018-08-09T23:16:03.937Z,101499.94
2018-08-09T23:18:34.603Z,101494.04
2018-08-09T23:21:07.223Z,101496.39
2018-08-09T23:23:39.537Z,101494.17
2018-08-09T23:26:12.561Z,101496.81
2018-08-09T23:28:43.630Z,101499.56
2018-08-09T23:33:51.450Z,101490.05
2018-08-09T23:36:25.902Z,101484.63
2018-08-09T23:38:59.431Z,101482.23
2018-08-09T23:41:32.150Z,101491.70
2018-08-09T23:44:05.122Z,101487.52
2018-08-09T23:46:37.767Z,101480.72
2018-08-09T23:49:14.198Z,101482.88
2018-08-09T23:51:51.415Z,101483.36
2018-08-09T23:54:23.645Z,101486.73
2018-08-09T23:56:58.526Z,101475.50
2018-08-09T23:59:31.917Z,101481.75
